createdAt,value
2022-11-08T00:02:06.646Z,53.83
2022-11-08T00:04:34.709Z,54.03
2022-11-08T00:07:20.291Z,62.03
2022-11-08T00:10:05.471Z,55.53
2022-11-08T00:12:50.896Z,57.35
2022-11-08T00:15:17.850Z,53.50
2022-11-08T00:17:44.969Z,49.25
2022-11-08T00:20:11.862Z,54.53
2022-11-08T00:22:38.747Z,56.30
2022-11-08T00:25:06.051Z,52.43
2022-11-08T00:27:32.922Z,58.22
2022-11-08T00:29:59.802Z,59.50
2022-11-08T00:32:26.810Z,56.85
2022-11-08T00:34:53.913Z,53.63
2022-11-08T00:37:21.316Z,55.40
2022-11-08T00:39:48.221Z,58.75
2022-11-08T00:42:15.087Z,57.03
2022-11-08T00:44:42.005Z,53.57
2022-11-08T00:47:08.901Z,51.08
2022-11-08T00:49:35.792Z,47.63
2022-11-08T00:52:02.667Z,47.70
2022-11-08T00:54:29.562Z,46.42
2022-11-08T00:56:56.440Z,45.20
2022-11-08T00:59:23.379Z,45.28
2022-11-08T01:01:50.363Z,42.27
2022-11-08T01:04:18.347Z,43.72
2022-11-08T01:06:45.338Z,45.67
2022-11-08T01:09:12.299Z,44.10
2022-11-08T01:11:39.440Z,45.95
2022-11-08T01:14:06.281Z,47.10
2022-11-08T01:16:33.634Z,46.10
2022-11-08T01:19:00.860Z,43.93
2022-11-08T01:21:27.902Z,47.17
2022-11-08T01:23:54.750Z,43.63
2022-11-08T01:26:26.545Z,46.53
2022-11-08T01:28:53.998Z,42.75
2022-11-08T01:31:25.723Z,42.33
2022-11-08T01:33:52.499Z,42.00
2022-11-08T01:36:21.446Z,36.83
2022-11-08T01:38:48.410Z,37.43
2022-11-08T01:41:16.015Z,40.90
2022-11-08T01:43:44.657Z,39.53
2022-11-08T01:46:20.335Z,42.20
2022-11-08T01:48:52.571Z,40.45
2022-11-08T01:51:20.637Z,35.87
2022-11-08T01:53:47.410Z,39.03
2022-11-08T01:56:14.208Z,37.90
2022-11-08T01:58:40.982Z,37.80
2022-11-08T02:01:07.858Z,39.50
2022-11-08T02:03:34.943Z,42.00
2022-11-08T02:06:01.961Z,39.53
2022-11-08T02:08:36.220Z,40.97
2022-11-08T02:11:03.241Z,42.37
2022-11-08T02:13:31.377Z,29.50
2022-11-08T02:15:58.176Z,38.97
2022-11-08T02:18:26.971Z,44.30
2022-11-08T02:21:13.012Z,43.10
2022-11-08T02:24:00.957Z,47.03
2022-11-08T02:26:32.657Z,46.33
2022-11-08T02:28:59.684Z,47.70
2022-11-08T02:31:26.445Z,48.40
2022-11-08T02:33:53.288Z,45.20
2022-11-08T02:36:21.464Z,42.93
2022-11-08T02:38:51.925Z,46.67
2022-11-08T02:41:18.738Z,52.20
2022-11-08T02:43:45.492Z,51.07
2022-11-08T02:46:12.376Z,49.33
2022-11-08T02:48:39.134Z,45.70
2022-11-08T02:51:06.070Z,44.10
2022-11-08T02:53:33.029Z,43.57
2022-11-08T02:55:59.897Z,44.83
2022-11-08T02:58:28.035Z,45.47
2022-11-08T03:00:55.062Z,45.30
2022-11-08T03:03:21.847Z,42.83
2022-11-08T03:05:48.633Z,44.90
2022-11-08T03:08:15.986Z,48.43
2022-11-08T03:10:42.991Z,45.23
2022-11-08T03:13:09.764Z,47.77
2022-11-08T03:15:36.604Z,47.77
2022-11-08T03:18:03.446Z,46.17
2022-11-08T03:20:33.175Z,44.53
2022-11-08T03:23:04.837Z,44.67
2022-11-08T03:25:31.603Z,42.50
2022-11-08T03:28:07.486Z,42.50
2022-11-08T03:30:34.607Z,39.17
2022-11-08T03:33:01.416Z,40.73
2022-11-08T03:35:28.274Z,40.57
2022-11-08T03:37:56.105Z,40.47
2022-11-08T03:40:23.095Z,41.47
2022-11-08T03:42:49.911Z,39.53
2022-11-08T03:45:16.981Z,37.80
2022-11-08T03:47:44.921Z,32.23
2022-11-08T03:50:12.436Z,35.63
2022-11-08T03:52:46.206Z,32.93
2022-11-08T03:55:13.642Z,35.17
2022-11-08T03:57:40.747Z,34.07
2022-11-08T04:00:08.823Z,31.60
2022-11-08T04:02:35.633Z,31.77
2022-11-08T04:05:02.497Z,30.50
2022-11-08T04:07:29.742Z,30.20
2022-11-08T04:09:56.588Z,32.33
2022-11-08T04:12:42.065Z,31.73
2022-11-08T04:15:15.678Z,31.27
2022-11-08T04:18:08.741Z,32.33
2022-11-08T04:21:01.517Z,32.60
2022-11-08T04:23:28.788Z,31.37
2022-11-08T04:25:56.776Z,31.30
2022-11-08T04:28:27.313Z,30.53
2022-11-08T04:31:01.353Z,33.30
2022-11-08T04:33:28.133Z,31.67
2022-11-08T04:35:54.910Z,30.47
2022-11-08T04:38:21.982Z,30.00
2022-11-08T04:40:48.894Z,29.70
2022-11-08T04:43:15.766Z,29.63
2022-11-08T04:45:42.578Z,28.93
2022-11-08T04:48:09.353Z,31.80
2022-11-08T04:50:36.697Z,31.73
2022-11-08T04:53:03.547Z,31.63
2022-11-08T04:55:30.320Z,30.10
2022-11-08T04:58:00.098Z,30.60
2022-11-08T05:00:27.112Z,34.43
2022-11-08T05:02:54.151Z,33.63
2022-11-08T05:05:21.341Z,34.17
2022-11-08T05:07:48.148Z,31.20
2022-11-08T05:10:15.025Z,28.73
2022-11-08T05:12:41.817Z,29.33
2022-11-08T05:15:09.054Z,27.07
2022-11-08T05:17:36.020Z,28.03
2022-11-08T05:20:22.229Z,26.93
2022-11-08T05:23:18.186Z,26.87
2022-11-08T05:25:46.394Z,24.37
2022-11-08T05:28:13.325Z,22.47
2022-11-08T05:30:40.095Z,21.57
2022-11-08T05:33:07.014Z,21.27
2022-11-08T05:35:34.357Z,22.00
2022-11-08T05:38:01.142Z,18.43
2022-11-08T05:40:32.230Z,17.83
2022-11-08T05:43:00.205Z,17.53
2022-11-08T05:45:27.263Z,16.77
2022-11-08T05:47:54.820Z,13.43
2022-11-08T05:50:21.623Z,14.70
2022-11-08T05:52:48.485Z,13.80
2022-11-08T05:55:15.388Z,12.87
2022-11-08T05:57:43.586Z,13.37
2022-11-08T06:00:11.861Z,13.63
2022-11-08T06:02:39.230Z,11.90
2022-11-08T06:05:07.361Z,12.20
2022-11-08T06:07:34.131Z,12.00
2022-11-08T06:10:00.940Z,11.50
2022-11-08T06:12:27.765Z,10.60
2022-11-08T06:14:55.586Z,10.80
2022-11-08T06:17:29.119Z,10.40
2022-11-08T06:19:56.837Z,8.93
2022-11-08T06:22:23.649Z,9.23
2022-11-08T06:24:50.437Z,10.67
2022-11-08T06:27:17.484Z,10.20
2022-11-08T06:29:44.322Z,10.07
2022-11-08T06:32:11.195Z,10.33
2022-11-08T06:34:38.037Z,11.13
2022-11-08T06:37:05.489Z,12.13
2022-11-08T06:39:32.533Z,12.00
2022-11-08T06:42:01.137Z,11.07
2022-11-08T06:44:27.921Z,11.60
2022-11-08T06:46:57.393Z,12.63
2022-11-08T06:49:24.485Z,12.60
2022-11-08T06:51:51.872Z,13.50
2022-11-08T06:54:20.215Z,10.20
2022-11-08T06:56:48.985Z,13.33
2022-11-08T06:59:15.760Z,13.57
2022-11-08T07:01:45.633Z,11.97
2022-11-08T07:04:12.839Z,12.30
2022-11-08T07:06:39.652Z,12.33
2022-11-08T07:09:06.422Z,12.33
2022-11-08T07:11:33.175Z,10.97
2022-11-08T07:14:01.034Z,11.37
2022-11-08T07:16:27.846Z,11.57
2022-11-08T07:18:55.762Z,11.63
2022-11-08T07:21:24.141Z,11.87
2022-11-08T07:23:50.980Z,11.33
2022-11-08T07:26:17.789Z,11.10
2022-11-08T07:28:44.573Z,10.60
2022-11-08T07:31:11.437Z,10.60
2022-11-08T07:33:38.270Z,10.40
2022-11-08T07:36:05.342Z,10.20
2022-11-08T07:38:32.130Z,9.27
2022-11-08T07:40:59.696Z,9.80
2022-11-08T07:43:27.597Z,9.40
2022-11-08T07:45:59.094Z,9.10
2022-11-08T07:48:26.555Z,9.30
2022-11-08T07:50:53.496Z,8.57
2022-11-08T07:53:20.638Z,8.77
2022-11-08T07:55:48.215Z,8.17
2022-11-08T07:58:15.181Z,8.70
2022-11-08T08:00:44.688Z,8.77
2022-11-08T08:03:13.099Z,8.98
2022-11-08T08:05:46.166Z,8.73
2022-11-08T08:08:13.471Z,9.50
2022-11-08T08:10:40.500Z,9.10
2022-11-08T08:13:07.461Z,8.73
2022-11-08T08:15:34.477Z,8.93
2022-11-08T08:18:03.119Z,8.20
2022-11-08T08:20:30.463Z,7.90
2022-11-08T08:22:57.318Z,8.07
2022-11-08T08:25:24.134Z,8.20
2022-11-08T08:27:52.722Z,8.90
2022-11-08T08:30:19.718Z,8.82
2022-11-08T08:32:53.511Z,8.70
2022-11-08T08:35:29.638Z,8.05
2022-11-08T08:38:00.477Z,8.15
2022-11-08T08:40:27.385Z,9.07
2022-11-08T08:42:54.313Z,9.27
2022-11-08T08:45:21.149Z,8.60
2022-11-08T08:47:55.176Z,7.20
2022-11-08T08:50:22.066Z,7.95
2022-11-08T08:52:48.979Z,7.05
2022-11-08T08:55:15.897Z,7.50
2022-11-08T08:57:46.585Z,6.47
2022-11-08T09:03:05.818Z,5.93
2022-11-08T09:05:33.035Z,6.25
2022-11-08T09:08:01.040Z,6.47
2022-11-08T09:10:28.061Z,6.47
2022-11-08T09:12:54.912Z,6.57
2022-11-08T09:15:21.864Z,6.35
2022-11-08T09:17:48.674Z,6.43
2022-11-08T09:20:16.226Z,6.07
2022-11-08T09:22:42.988Z,6.32
2022-11-08T09:25:10.535Z,7.35
2022-11-08T09:27:37.384Z,6.68
2022-11-08T09:30:05.045Z,7.30
2022-11-08T09:32:59.063Z,6.82
2022-11-08T09:35:20.531Z,6.63
2022-11-08T09:37:49.755Z,6.90
2022-11-08T09:40:23.918Z,6.38
2022-11-08T09:43:00.059Z,6.90
2022-11-08T09:45:43.796Z,6.78
2022-11-08T09:48:30.924Z,6.20
2022-11-08T09:50:57.934Z,5.55
2022-11-08T09:53:34.749Z,5.85
2022-11-08T09:56:16.042Z,5.60
2022-11-08T09:59:04.650Z,5.32
2022-11-08T10:01:32.607Z,5.32
2022-11-08T10:04:07.056Z,4.90
2022-11-08T10:06:46.754Z,4.70
2022-11-08T10:09:25.447Z,3.58
2022-11-08T10:12:07.265Z,4.10
2022-11-08T10:14:53.498Z,3.20
2022-11-08T10:17:37.022Z,5.10
2022-11-08T10:20:55.112Z,4.50
2022-11-08T10:23:25.577Z,4.88
2022-11-08T10:25:59.720Z,5.53
2022-11-08T10:28:36.597Z,4.45
2022-11-08T10:31:03.356Z,4.20
2022-11-08T10:33:36.863Z,4.20
2022-11-08T10:36:07.586Z,4.72
2022-11-08T10:38:44.113Z,4.95
2022-11-08T10:41:18.686Z,4.70
2022-11-08T10:43:49.907Z,5.90
2022-11-08T10:46:38.161Z,5.60
2022-11-08T10:49:38.687Z,5.57
2022-11-08T10:52:11.754Z,5.40
2022-11-08T10:54:45.711Z,4.80
2022-11-08T10:57:14.532Z,4.80
2022-11-08T10:59:41.677Z,4.90
2022-11-08T11:02:23.694Z,4.95
2022-11-08T11:04:51.218Z,4.32
2022-11-08T11:07:29.241Z,3.92
2022-11-08T11:09:56.140Z,3.80
2022-11-08T11:12:23.037Z,4.00
2022-11-08T11:14:57.902Z,4.15
2022-11-08T11:17:35.514Z,4.10
2022-11-08T11:20:06.139Z,4.95
2022-11-08T11:22:33.705Z,3.75
2022-11-08T11:25:07.204Z,4.20
2022-11-08T11:27:36.168Z,4.07
2022-11-08T11:30:25.631Z,3.45
2022-11-08T11:33:01.540Z,4.65
2022-11-08T11:35:43.362Z,4.43
2022-11-08T11:38:22.113Z,3.70
2022-11-08T11:40:49.031Z,4.65
2022-11-08T11:43:53.039Z,4.72
2022-11-08T11:46:26.217Z,4.70
2022-11-08T11:49:01.044Z,4.75
2022-11-08T11:51:29.524Z,4.68
2022-11-08T11:53:56.910Z,5.57
2022-11-08T11:56:35.671Z,5.78
2022-11-08T11:59:31.200Z,5.35
2022-11-08T12:02:19.639Z,5.45
2022-11-08T12:05:08.234Z,5.55
2022-11-08T12:07:35.755Z,4.93
2022-11-08T12:10:25.744Z,4.55
2022-11-08T12:13:08.769Z,4.30
2022-11-08T12:16:08.178Z,4.72
2022-11-08T12:18:44.088Z,5.00
2022-11-08T12:21:20.473Z,4.47
2022-11-08T12:23:57.064Z,4.60
2022-11-08T12:26:43.041Z,4.55
2022-11-08T12:29:34.708Z,4.60
2022-11-08T12:32:10.519Z,4.50
2022-11-08T12:34:46.285Z,4.07
2022-11-08T12:37:32.456Z,3.70
2022-11-08T12:40:04.040Z,4.05
2022-11-08T12:42:49.266Z,4.53
2022-11-08T12:45:20.517Z,4.40
2022-11-08T12:47:47.292Z,4.38
2022-11-08T12:50:34.835Z,4.32
2022-11-08T12:53:24.885Z,4.57
2022-11-08T12:55:52.358Z,4.10
2022-11-08T12:58:27.582Z,4.63
2022-11-08T13:01:00.276Z,4.28
2022-11-08T13:03:51.338Z,4.03
2022-11-08T13:06:21.380Z,4.50
2022-11-08T13:09:19.372Z,4.45
2022-11-08T13:11:58.338Z,4.38
2022-11-08T13:14:25.221Z,3.75
2022-11-08T13:17:16.981Z,3.85
2022-11-08T13:19:46.854Z,3.63
2022-11-08T13:22:32.154Z,3.20
2022-11-08T13:25:11.476Z,3.47
2022-11-08T13:27:41.789Z,3.53
2022-11-08T13:30:14.022Z,3.20
2022-11-08T13:32:43.599Z,3.28
2022-11-08T13:35:25.150Z,3.38
2022-11-08T13:38:05.942Z,3.00
2022-11-08T13:40:44.765Z,3.40
2022-11-08T13:43:21.407Z,3.20
2022-11-08T13:45:48.475Z,3.50
2022-11-08T13:48:24.957Z,3.65
2022-11-08T13:51:06.292Z,3.20
2022-11-08T13:53:51.482Z,4.30
2022-11-08T13:56:42.370Z,4.20
2022-11-08T13:59:30.902Z,8.10
2022-11-08T14:02:03.722Z,5.07
2022-11-08T14:04:37.244Z,5.85
2022-11-08T14:07:25.907Z,6.43
2022-11-08T14:10:13.247Z,7.63
2022-11-08T14:13:05.117Z,5.38
2022-11-08T14:15:35.264Z,5.15
2022-11-08T14:18:05.868Z,5.80
2022-11-08T14:20:43.089Z,6.18
2022-11-08T14:23:20.105Z,5.55
2022-11-08T14:25:51.575Z,5.65
2022-11-08T14:28:25.586Z,5.28
2022-11-08T14:30:52.536Z,6.00
2022-11-08T14:33:30.057Z,6.03
2022-11-08T14:36:00.537Z,6.25
2022-11-08T14:38:28.264Z,6.35
2022-11-08T14:40:59.993Z,7.10
2022-11-08T14:43:26.830Z,6.93
2022-11-08T14:45:53.824Z,6.28
2022-11-08T14:48:38.822Z,6.25
2022-11-08T14:51:06.332Z,5.15
2022-11-08T14:53:34.154Z,5.68
2022-11-08T14:56:13.244Z,7.05
2022-11-08T14:58:40.074Z,5.60
2022-11-08T15:01:06.882Z,6.53
2022-11-08T15:03:34.944Z,6.20
2022-11-08T15:06:03.950Z,6.95
2022-11-08T15:08:36.106Z,8.27
2022-11-08T15:11:07.680Z,6.80
2022-11-08T15:13:40.177Z,6.43
2022-11-08T15:16:07.317Z,6.47
2022-11-08T15:18:36.811Z,6.63
2022-11-08T15:21:28.873Z,6.82
2022-11-08T15:24:14.382Z,7.90
2022-11-08T15:26:48.922Z,7.40
2022-11-08T15:29:23.605Z,8.60
2022-11-08T15:32:01.693Z,8.50
2022-11-08T15:34:39.042Z,8.52
2022-11-08T15:37:32.426Z,7.25
2022-11-08T15:40:21.129Z,7.72
2022-11-08T15:42:50.462Z,7.68
2022-11-08T15:45:17.227Z,7.68
2022-11-08T15:47:44.016Z,8.32
2022-11-08T15:50:14.366Z,8.95
2022-11-08T15:52:41.791Z,8.45
2022-11-08T15:55:09.085Z,7.93
2022-11-08T15:57:40.241Z,8.63
2022-11-08T16:00:10.037Z,8.60
2022-11-08T16:02:36.900Z,9.02
2022-11-08T16:05:22.833Z,7.63
2022-11-08T16:07:49.943Z,9.02
2022-11-08T16:10:18.801Z,9.52
2022-11-08T16:12:46.299Z,7.13
2022-11-08T16:15:17.767Z,8.82
2022-11-08T16:17:44.542Z,9.18
2022-11-08T16:20:20.485Z,8.73
2022-11-08T16:22:47.258Z,8.07
2022-11-08T16:25:14.110Z,9.30
2022-11-08T16:27:41.072Z,9.52
2022-11-08T16:30:15.282Z,8.95
2022-11-08T16:32:42.348Z,8.73
2022-11-08T16:35:10.426Z,7.85
2022-11-08T16:37:38.069Z,9.27
2022-11-08T16:40:17.195Z,8.90
2022-11-08T16:42:45.325Z,9.20
2022-11-08T16:45:13.129Z,9.48
2022-11-08T16:47:44.008Z,8.25
2022-11-08T16:50:16.368Z,8.15
2022-11-08T16:52:43.289Z,8.57
2022-11-08T16:55:17.530Z,8.25
2022-11-08T16:57:44.958Z,8.60
2022-11-08T17:00:14.139Z,7.93
2022-11-08T17:02:46.744Z,8.30
2022-11-08T17:05:21.737Z,7.55
2022-11-08T17:07:51.121Z,7.70
2022-11-08T17:10:19.941Z,7.35
2022-11-08T17:12:48.288Z,8.13
2022-11-08T17:15:20.373Z,9.68
2022-11-08T17:17:47.227Z,7.90
2022-11-08T17:20:15.068Z,8.60
2022-11-08T17:22:42.061Z,8.75
2022-11-08T17:25:09.281Z,7.10
2022-11-08T17:27:36.049Z,8.48
2022-11-08T17:30:02.998Z,7.93
2022-11-08T17:32:29.761Z,7.70
2022-11-08T17:34:56.557Z,8.10
2022-11-08T17:37:23.872Z,8.13
2022-11-08T17:39:52.888Z,7.15
2022-11-08T17:42:22.945Z,8.30
2022-11-08T17:44:50.131Z,8.57
2022-11-08T17:47:17.274Z,10.10
2022-11-08T17:49:44.364Z,8.45
2022-11-08T17:52:11.831Z,6.68
2022-11-08T17:54:39.662Z,8.30
2022-11-08T17:57:06.544Z,7.38
2022-11-08T17:59:33.384Z,7.07
2022-11-08T18:02:00.368Z,6.53
2022-11-08T18:04:27.185Z,7.55
2022-11-08T18:06:54.052Z,8.20
2022-11-08T18:09:20.974Z,6.70
2022-11-08T18:11:47.995Z,7.47
2022-11-08T18:14:24.217Z,7.93
2022-11-08T18:16:55.088Z,7.03
2022-11-08T18:19:22.189Z,7.93
2022-11-08T18:21:48.993Z,7.88
2022-11-08T18:24:15.926Z,7.93
2022-11-08T18:26:42.999Z,9.13
2022-11-08T18:29:09.861Z,8.95
2022-11-08T18:31:36.959Z,9.30
2022-11-08T18:34:04.243Z,8.15
2022-11-08T18:36:31.214Z,8.05
2022-11-08T18:39:01.274Z,9.25
2022-11-08T18:41:29.878Z,9.60
2022-11-08T18:43:57.063Z,9.43
2022-11-08T18:46:24.702Z,9.60
2022-11-08T18:48:51.537Z,10.77
2022-11-08T18:51:19.072Z,10.25
2022-11-08T18:53:45.917Z,11.80
2022-11-08T18:56:12.850Z,9.45
2022-11-08T18:58:39.637Z,8.00
2022-11-08T19:01:06.599Z,7.93
2022-11-08T19:03:33.956Z,9.98
2022-11-08T19:06:01.721Z,10.15
2022-11-08T19:08:30.686Z,9.70
2022-11-08T19:10:58.305Z,9.02
2022-11-08T19:13:26.789Z,9.70
2022-11-08T19:16:06.009Z,11.75
2022-11-08T19:18:33.061Z,9.43
2022-11-08T19:21:10.537Z,10.02
2022-11-08T19:23:38.455Z,10.25
2022-11-08T19:26:14.221Z,9.38
2022-11-08T19:28:42.426Z,11.35
2022-11-08T19:31:09.309Z,10.65
2022-11-08T19:33:36.488Z,9.73
2022-11-08T19:36:07.869Z,11.32
2022-11-08T19:38:35.909Z,10.57
2022-11-08T19:41:03.770Z,11.13
2022-11-08T19:43:31.099Z,10.60
2022-11-08T19:46:02.272Z,10.55
2022-11-08T19:48:30.236Z,11.80
2022-11-08T19:50:57.294Z,6.82
2022-11-08T19:53:24.087Z,7.13
2022-11-08T19:55:57.796Z,7.63
2022-11-08T19:58:24.573Z,8.23
2022-11-08T20:00:51.340Z,8.77
2022-11-08T20:03:18.183Z,10.00
2022-11-08T20:05:45.313Z,12.38
2022-11-08T20:08:12.231Z,8.52
2022-11-08T20:10:38.995Z,10.93
2022-11-08T20:13:08.148Z,9.65
2022-11-08T20:15:34.955Z,10.45
2022-11-08T20:18:01.748Z,10.40
2022-11-08T20:20:30.785Z,10.50
2022-11-08T20:22:57.699Z,10.90
2022-11-08T20:25:24.530Z,9.93
2022-11-08T20:27:51.282Z,9.90
2022-11-08T20:30:18.150Z,9.93
2022-11-08T20:32:44.963Z,11.18
2022-11-08T20:35:11.785Z,10.45
2022-11-08T20:37:38.559Z,10.20
2022-11-08T20:40:06.049Z,10.35
2022-11-08T20:42:32.818Z,12.35
2022-11-08T20:44:59.630Z,10.77
2022-11-08T20:47:26.395Z,8.63
2022-11-08T20:49:53.318Z,10.38
2022-11-08T20:52:22.390Z,10.40
2022-11-08T20:54:49.814Z,12.27
2022-11-08T20:57:16.622Z,11.15
2022-11-08T20:59:43.399Z,10.85
2022-11-08T21:02:11.638Z,9.68
2022-11-08T21:04:38.676Z,10.70
2022-11-08T21:08:00.785Z,10.07
2022-11-08T21:10:03.205Z,7.95
2022-11-08T21:12:39.692Z,9.68
2022-11-08T21:15:06.990Z,9.20
2022-11-08T21:17:33.741Z,9.50
2022-11-08T21:20:00.512Z,8.80
2022-11-08T21:22:27.309Z,6.78
2022-11-08T21:24:54.123Z,6.78
2022-11-08T21:27:23.663Z,6.90
2022-11-08T21:29:53.851Z,7.40
2022-11-08T21:32:20.670Z,7.57
2022-11-08T21:34:47.543Z,6.20
2022-11-08T21:37:14.613Z,7.78
2022-11-08T21:39:41.618Z,7.55
2022-11-08T21:42:08.419Z,7.10
2022-11-08T21:44:35.217Z,7.32
2022-11-08T21:47:02.073Z,7.57
2022-11-08T21:49:28.843Z,6.32
2022-11-08T21:51:55.625Z,6.53
2022-11-08T21:54:22.704Z,6.10
2022-11-08T21:56:49.522Z,5.95
2022-11-08T21:59:16.333Z,6.43
2022-11-08T22:01:43.089Z,5.80
2022-11-08T22:04:09.840Z,5.65
2022-11-08T22:06:36.749Z,5.00
2022-11-08T22:09:03.660Z,5.55
2022-11-08T22:11:30.475Z,5.13
2022-11-08T22:13:58.299Z,4.85
2022-11-08T22:16:25.065Z,5.78
2022-11-08T22:19:04.766Z,5.53
2022-11-08T22:21:38.889Z,6.03
2022-11-08T22:24:12.476Z,5.82
2022-11-08T22:26:39.798Z,6.22
2022-11-08T22:29:06.781Z,6.15
2022-11-08T22:31:33.739Z,6.15
2022-11-08T22:34:00.670Z,7.22
2022-11-08T22:36:27.899Z,6.00
2022-11-08T22:38:54.952Z,6.70
2022-11-08T22:41:21.941Z,6.65
2022-11-08T22:43:48.738Z,5.78
2022-11-08T22:46:15.531Z,5.40
2022-11-08T22:48:42.299Z,5.85
2022-11-08T22:51:09.187Z,5.70
2022-11-08T22:53:36.034Z,6.05
2022-11-08T22:56:06.949Z,7.43
2022-11-08T22:58:36.781Z,6.07
2022-11-08T23:01:03.762Z,5.80
2022-11-08T23:03:30.535Z,5.60
2022-11-08T23:05:57.415Z,5.78
2022-11-08T23:08:25.236Z,6.53
2022-11-08T23:11:10.821Z,5.65
2022-11-08T23:13:56.131Z,6.20
2022-11-08T23:16:33.639Z,6.82
2022-11-08T23:19:22.796Z,6.05
2022-11-08T23:22:08.571Z,6.43
2022-11-08T23:24:35.387Z,6.20
2022-11-08T23:27:20.722Z,6.30
2022-11-08T23:30:06.170Z,7.03
2022-11-08T23:32:33.467Z,6.37
2022-11-08T23:35:00.249Z,4.95
2022-11-08T23:37:27.261Z,6.90
2022-11-08T23:40:12.774Z,6.03
2022-11-08T23:42:58.443Z,5.15
2022-11-08T23:45:25.317Z,6.68
2022-11-08T23:47:52.998Z,5.65
2022-11-08T23:50:19.862Z,6.63
2022-11-08T23:52:46.739Z,6.05
2022-11-08T23:55:13.537Z,6.47
2022-11-08T23:57:40.320Z,6.97
